sensor_id;sensor_type;location;lat;lon;timestamp;P1;durP1;ratioP1;P2;durP2;ratioP2
7334;SDS011;3708;42.632;23.378;2023-02-04T00:00:15;23.90;;;7.00;;
7334;SDS011;3708;42.632;23.378;2023-02-04T00:02:43;14.00;;;7.13;;
7334;SDS011;3708;42.632;23.378;2023-02-04T00:05:11;12.17;;;7.20;;
7334;SDS011;3708;42.632;23.378;2023-02-04T00:07:38;13.73;;;6.67;;
7334;SDS011;3708;42.632;23.378;2023-02-04T00:10:05;9.23;;;5.80;;
7334;SDS011;3708;42.632;23.378;2023-02-04T00:12:33;13.73;;;7.00;;
7334;SDS011;3708;42.632;23.378;2023-02-04T00:14:59;13.77;;;6.77;;
7334;SDS011;3708;42.632;23.378;2023-02-04T00:17:26;11.67;;;7.20;;
7334;SDS011;3708;42.632;23.378;2023-02-04T00:19:53;11.33;;;7.50;;
7334;SDS011;3708;42.632;23.378;2023-02-04T00:22:21;15.63;;;9.40;;
7334;SDS011;3708;42.632;23.378;2023-02-04T00:24:50;18.97;;;9.90;;
7334;SDS011;3708;42.632;23.378;2023-02-04T00:27:17;16.27;;;8.87;;
7334;SDS011;3708;42.632;23.378;2023-02-04T00:29:44;16.33;;;9.13;;
7334;SDS011;3708;42.632;23.378;2023-02-04T00:32:10;13.50;;;7.90;;
7334;SDS011;3708;42.632;23.378;2023-02-04T00:34:37;13.20;;;8.10;;
7334;SDS011;3708;42.632;23.378;2023-02-04T00:37:04;10.03;;;7.80;;
7334;SDS011;3708;42.632;23.378;2023-02-04T00:39:32;11.77;;;7.90;;
7334;SDS011;3708;42.632;23.378;2023-02-04T00:41:59;14.77;;;7.57;;
7334;SDS011;3708;42.632;23.378;2023-02-04T00:44:26;12.10;;;8.23;;
7334;SDS011;3708;42.632;23.378;2023-02-04T00:46:52;10.27;;;7.47;;
7334;SDS011;3708;42.632;23.378;2023-02-04T00:49:19;11.60;;;7.60;;
7334;SDS011;3708;42.632;23.378;2023-02-04T00:51:46;12.27;;;8.37;;
7334;SDS011;3708;42.632;23.378;2023-02-04T00:54:13;10.30;;;7.63;;
7334;SDS011;3708;42.632;23.378;2023-02-04T00:56:42;11.07;;;8.03;;
7334;SDS011;3708;42.632;23.378;2023-02-04T00:59:09;9.70;;;7.13;;
7334;SDS011;3708;42.632;23.378;2023-02-04T01:01:36;13.83;;;8.27;;
7334;SDS011;3708;42.632;23.378;2023-02-04T01:04:03;10.97;;;7.63;;
7334;SDS011;3708;42.632;23.378;2023-02-04T01:06:30;13.20;;;9.10;;
7334;SDS011;3708;42.632;23.378;2023-02-04T01:08:57;13.00;;;9.40;;
7334;SDS011;3708;42.632;23.378;2023-02-04T01:11:25;13.20;;;8.07;;
7334;SDS011;3708;42.632;23.378;2023-02-04T01:13:54;10.10;;;8.03;;
7334;SDS011;3708;42.632;23.378;2023-02-04T01:16:21;11.27;;;7.43;;
7334;SDS011;3708;42.632;23.378;2023-02-04T01:18:48;9.77;;;6.80;;
7334;SDS011;3708;42.632;23.378;2023-02-04T01:21:15;10.03;;;7.20;;
7334;SDS011;3708;42.632;23.378;2023-02-04T01:23:42;9.83;;;6.47;;
7334;SDS011;3708;42.632;23.378;2023-02-04T01:26:09;9.73;;;6.90;;
7334;SDS011;3708;42.632;23.378;2023-02-04T01:28:36;12.17;;;6.77;;
7334;SDS011;3708;42.632;23.378;2023-02-04T01:31:04;9.27;;;6.17;;
7334;SDS011;3708;42.632;23.378;2023-02-04T01:33:31;12.93;;;7.60;;
7334;SDS011;3708;42.632;23.378;2023-02-04T01:35:58;9.57;;;6.90;;
7334;SDS011;3708;42.632;23.378;2023-02-04T01:38:24;12.97;;;8.40;;
7334;SDS011;3708;42.632;23.378;2023-02-04T01:40:51;12.27;;;8.07;;
7334;SDS011;3708;42.632;23.378;2023-02-04T01:43:18;11.07;;;8.03;;
7334;SDS011;3708;42.632;23.378;2023-02-04T01:45:46;10.90;;;8.00;;
7334;SDS011;3708;42.632;23.378;2023-02-04T01:48:15;13.97;;;8.40;;
7334;SDS011;3708;42.632;23.378;2023-02-04T01:50:45;14.17;;;8.30;;
7334;SDS011;3708;42.632;23.378;2023-02-04T01:53:12;12.73;;;8.47;;
7334;SDS011;3708;42.632;23.378;2023-02-04T01:55:41;11.33;;;8.10;;
7334;SDS011;3708;42.632;23.378;2023-02-04T01:58:09;11.93;;;7.93;;
7334;SDS011;3708;42.632;23.378;2023-02-04T02:00:37;12.37;;;8.33;;
7334;SDS011;3708;42.632;23.378;2023-02-04T02:03:05;9.53;;;7.83;;
7334;SDS011;3708;42.632;23.378;2023-02-04T02:05:37;12.10;;;8.80;;
7334;SDS011;3708;42.632;23.378;2023-02-04T02:08:05;10.23;;;7.60;;
7334;SDS011;3708;42.632;23.378;2023-02-04T02:10:34;10.87;;;8.13;;
7334;SDS011;3708;42.632;23.378;2023-02-04T02:13:02;13.23;;;9.30;;
7334;SDS011;3708;42.632;23.378;2023-02-04T02:15:29;11.97;;;8.13;;
7334;SDS011;3708;42.632;23.378;2023-02-04T02:17:56;12.20;;;8.67;;
7334;SDS011;3708;42.632;23.378;2023-02-04T02:20:24;12.67;;;8.27;;
7334;SDS011;3708;42.632;23.378;2023-02-04T02:22:57;10.60;;;8.23;;
7334;SDS011;3708;42.632;23.378;2023-02-04T02:25:29;12.93;;;8.83;;
7334;SDS011;3708;42.632;23.378;2023-02-04T02:27:56;11.10;;;8.00;;
7334;SDS011;3708;42.632;23.378;2023-02-04T02:30:23;11.53;;;8.10;;
7334;SDS011;3708;42.632;23.378;2023-02-04T02:32:52;15.67;;;9.63;;
7334;SDS011;3708;42.632;23.378;2023-02-04T02:35:19;10.73;;;7.93;;
7334;SDS011;3708;42.632;23.378;2023-02-04T02:37:46;12.37;;;8.70;;
7334;SDS011;3708;42.632;23.378;2023-02-04T02:40:13;12.20;;;8.90;;
7334;SDS011;3708;42.632;23.378;2023-02-04T02:42:42;12.60;;;9.30;;
7334;SDS011;3708;42.632;23.378;2023-02-04T02:45:14;12.53;;;8.70;;
7334;SDS011;3708;42.632;23.378;2023-02-04T02:47:47;14.23;;;7.90;;
7334;SDS011;3708;42.632;23.378;2023-02-04T02:50:15;10.83;;;7.83;;
7334;SDS011;3708;42.632;23.378;2023-02-04T02:52:45;10.03;;;7.87;;
7334;SDS011;3708;42.632;23.378;2023-02-04T02:55:13;11.77;;;7.93;;
7334;SDS011;3708;42.632;23.378;2023-02-04T02:57:44;13.20;;;7.50;;
7334;SDS011;3708;42.632;23.378;2023-02-04T03:00:12;10.40;;;8.00;;
7334;SDS011;3708;42.632;23.378;2023-02-04T03:02:40;10.70;;;8.40;;
7334;SDS011;3708;42.632;23.378;2023-02-04T03:05:08;11.37;;;8.20;;
7334;SDS011;3708;42.632;23.378;2023-02-04T03:07:35;9.87;;;7.70;;
7334;SDS011;3708;42.632;23.378;2023-02-04T03:10:02;12.00;;;7.97;;
7334;SDS011;3708;42.632;23.378;2023-02-04T03:12:30;11.23;;;8.10;;
7334;SDS011;3708;42.632;23.378;2023-02-04T03:14:58;12.67;;;8.40;;
7334;SDS011;3708;42.632;23.378;2023-02-04T03:17:25;15.07;;;8.60;;
7334;SDS011;3708;42.632;23.378;2023-02-04T03:19:52;12.77;;;8.73;;
7334;SDS011;3708;42.632;23.378;2023-02-04T03:22:19;15.17;;;8.80;;
7334;SDS011;3708;42.632;23.378;2023-02-04T03:24:46;12.07;;;8.20;;
7334;SDS011;3708;42.632;23.378;2023-02-04T03:27:13;13.83;;;9.20;;
7334;SDS011;3708;42.632;23.378;2023-02-04T03:29:41;14.57;;;9.47;;
7334;SDS011;3708;42.632;23.378;2023-02-04T03:32:10;14.27;;;8.77;;
7334;SDS011;3708;42.632;23.378;2023-02-04T03:34:37;10.80;;;8.03;;
7334;SDS011;3708;42.632;23.378;2023-02-04T03:37:04;12.13;;;8.13;;
7334;SDS011;3708;42.632;23.378;2023-02-04T03:39:31;10.83;;;8.20;;
7334;SDS011;3708;42.632;23.378;2023-02-04T03:41:57;10.63;;;7.40;;
7334;SDS011;3708;42.632;23.378;2023-02-04T03:44:24;8.27;;;6.47;;
7334;SDS011;3708;42.632;23.378;2023-02-04T03:46:52;13.43;;;7.00;;
7334;SDS011;3708;42.632;23.378;2023-02-04T03:49:21;10.20;;;7.10;;
7334;SDS011;3708;42.632;23.378;2023-02-04T03:51:48;11.77;;;7.17;;
7334;SDS011;3708;42.632;23.378;2023-02-04T03:54:15;9.87;;;6.07;;
7334;SDS011;3708;42.632;23.378;2023-02-04T03:56:42;10.10;;;6.93;;
7334;SDS011;3708;42.632;23.378;2023-02-04T03:59:09;10.47;;;7.10;;
7334;SDS011;3708;42.632;23.378;2023-02-04T04:01:36;11.53;;;7.33;;
7334;SDS011;3708;42.632;23.378;2023-02-04T04:04:02;9.23;;;6.60;;
7334;SDS011;3708;42.632;23.378;2023-02-04T04:06:30;10.37;;;7.20;;
7334;SDS011;3708;42.632;23.378;2023-02-04T04:08:57;9.80;;;6.40;;
7334;SDS011;3708;42.632;23.378;2023-02-04T04:11:24;10.57;;;5.97;;
7334;SDS011;3708;42.632;23.378;2023-02-04T04:13:51;9.90;;;6.37;;
7334;SDS011;3708;42.632;23.378;2023-02-04T04:16:18;9.30;;;6.43;;
7334;SDS011;3708;42.632;23.378;2023-02-04T04:18:45;7.80;;;6.07;;
7334;SDS011;3708;42.632;23.378;2023-02-04T04:21:12;9.17;;;5.77;;
7334;SDS011;3708;42.632;23.378;2023-02-04T04:23:41;12.37;;;6.67;;
7334;SDS011;3708;42.632;23.378;2023-02-04T04:26:07;11.33;;;6.73;;
7334;SDS011;3708;42.632;23.378;2023-02-04T04:28:34;11.40;;;7.00;;
7334;SDS011;3708;42.632;23.378;2023-02-04T04:31:01;12.13;;;7.07;;
7334;SDS011;3708;42.632;23.378;2023-02-04T04:33:28;9.40;;;6.57;;
7334;SDS011;3708;42.632;23.378;2023-02-04T04:35:54;9.50;;;7.03;;
7334;SDS011;3708;42.632;23.378;2023-02-04T04:38:21;12.60;;;7.07;;
7334;SDS011;3708;42.632;23.378;2023-02-04T04:40:49;9.33;;;7.27;;
7334;SDS011;3708;42.632;23.378;2023-02-04T04:43:16;11.67;;;7.50;;
7334;SDS011;3708;42.632;23.378;2023-02-04T04:45:43;10.53;;;7.57;;
7334;SDS011;3708;42.632;23.378;2023-02-04T04:48:10;12.30;;;7.23;;
7334;SDS011;3708;42.632;23.378;2023-02-04T04:50:37;11.90;;;7.00;;
7334;SDS011;3708;42.632;23.378;2023-02-04T04:53:04;10.97;;;6.30;;
7334;SDS011;3708;42.632;23.378;2023-02-04T04:55:35;11.63;;;7.30;;
7334;SDS011;3708;42.632;23.378;2023-02-04T04:58:03;10.13;;;6.40;;
7334;SDS011;3708;42.632;23.378;2023-02-04T05:00:30;11.23;;;6.40;;
7334;SDS011;3708;42.632;23.378;2023-02-04T05:02:57;12.20;;;6.10;;
7334;SDS011;3708;42.632;23.378;2023-02-04T05:05:24;10.93;;;6.10;;
7334;SDS011;3708;42.632;23.378;2023-02-04T05:07:51;13.03;;;6.83;;
7334;SDS011;3708;42.632;23.378;2023-02-04T05:10:18;9.47;;;5.77;;
7334;SDS011;3708;42.632;23.378;2023-02-04T05:12:46;8.40;;;6.03;;
7334;SDS011;3708;42.632;23.378;2023-02-04T05:15:14;8.87;;;5.90;;
7334;SDS011;3708;42.632;23.378;2023-02-04T05:17:41;11.40;;;6.67;;
7334;SDS011;3708;42.632;23.378;2023-02-04T05:20:08;10.13;;;6.13;;
7334;SDS011;3708;42.632;23.378;2023-02-04T05:22:35;9.43;;;5.87;;
7334;SDS011;3708;42.632;23.378;2023-02-04T05:25:02;9.10;;;6.47;;
7334;SDS011;3708;42.632;23.378;2023-02-04T05:27:29;9.27;;;6.70;;
7334;SDS011;3708;42.632;23.378;2023-02-04T05:29:57;10.30;;;6.83;;
7334;SDS011;3708;42.632;23.378;2023-02-04T05:32:25;11.63;;;7.37;;
7334;SDS011;3708;42.632;23.378;2023-02-04T05:34:52;9.43;;;6.83;;
7334;SDS011;3708;42.632;23.378;2023-02-04T05:37:19;9.90;;;7.23;;
7334;SDS011;3708;42.632;23.378;2023-02-04T05:39:46;9.57;;;6.63;;
7334;SDS011;3708;42.632;23.378;2023-02-04T05:42:13;15.70;;;7.70;;
7334;SDS011;3708;42.632;23.378;2023-02-04T05:44:39;18.93;;;8.90;;
7334;SDS011;3708;42.632;23.378;2023-02-04T05:47:06;9.90;;;6.63;;
7334;SDS011;3708;42.632;23.378;2023-02-04T05:49:34;8.87;;;5.73;;
7334;SDS011;3708;42.632;23.378;2023-02-04T05:52:01;8.30;;;6.17;;
7334;SDS011;3708;42.632;23.378;2023-02-04T05:54:28;9.83;;;5.17;;
7334;SDS011;3708;42.632;23.378;2023-02-04T05:56:55;6.60;;;4.90;;
7334;SDS011;3708;42.632;23.378;2023-02-04T05:59:22;3.17;;;2.53;;
7334;SDS011;3708;42.632;23.378;2023-02-04T06:01:49;4.90;;;2.27;;
7334;SDS011;3708;42.632;23.378;2023-02-04T06:04:15;2.93;;;1.93;;
7334;SDS011;3708;42.632;23.378;2023-02-04T06:06:44;2.10;;;1.90;;
7334;SDS011;3708;42.632;23.378;2023-02-04T06:09:11;2.50;;;2.20;;
7334;SDS011;3708;42.632;23.378;2023-02-04T06:11:38;2.77;;;2.17;;
7334;SDS011;3708;42.632;23.378;2023-02-04T06:14:05;2.70;;;2.00;;
7334;SDS011;3708;42.632;23.378;2023-02-04T06:16:32;3.63;;;1.80;;
7334;SDS011;3708;42.632;23.378;2023-02-04T06:18:59;2.37;;;1.70;;
7334;SDS011;3708;42.632;23.378;2023-02-04T06:21:26;3.47;;;1.63;;
7334;SDS011;3708;42.632;23.378;2023-02-04T06:23:54;2.53;;;2.13;;
7334;SDS011;3708;42.632;23.378;2023-02-04T06:26:21;3.20;;;1.80;;
7334;SDS011;3708;42.632;23.378;2023-02-04T06:28:48;3.93;;;2.17;;
7334;SDS011;3708;42.632;23.378;2023-02-04T06:31:14;3.03;;;1.87;;
7334;SDS011;3708;42.632;23.378;2023-02-04T06:33:41;3.00;;;2.10;;
7334;SDS011;3708;42.632;23.378;2023-02-04T06:36:10;2.40;;;2.07;;
7334;SDS011;3708;42.632;23.378;2023-02-04T06:38:37;3.00;;;2.17;;
7334;SDS011;3708;42.632;23.378;2023-02-04T06:41:05;1.87;;;1.73;;
7334;SDS011;3708;42.632;23.378;2023-02-04T06:43:32;2.90;;;1.90;;
7334;SDS011;3708;42.632;23.378;2023-02-04T06:45:59;2.40;;;1.90;;
7334;SDS011;3708;42.632;23.378;2023-02-04T06:48:29;2.90;;;2.60;;
7334;SDS011;3708;42.632;23.378;2023-02-04T06:50:58;4.13;;;2.63;;
7334;SDS011;3708;42.632;23.378;2023-02-04T06:53:25;5.93;;;2.60;;
7334;SDS011;3708;42.632;23.378;2023-02-04T06:55:52;4.40;;;2.83;;
7334;SDS011;3708;42.632;23.378;2023-02-04T06:58:20;4.13;;;2.27;;
7334;SDS011;3708;42.632;23.378;2023-02-04T07:00:47;3.33;;;1.87;;
7334;SDS011;3708;42.632;23.378;2023-02-04T07:03:14;2.73;;;1.80;;
7334;SDS011;3708;42.632;23.378;2023-02-04T07:05:40;3.10;;;2.10;;
7334;SDS011;3708;42.632;23.378;2023-02-04T07:08:07;2.87;;;1.93;;
7334;SDS011;3708;42.632;23.378;2023-02-04T07:10:34;2.07;;;1.70;;
7334;SDS011;3708;42.632;23.378;2023-02-04T07:13:01;3.17;;;2.10;;
7334;SDS011;3708;42.632;23.378;2023-02-04T07:15:29;3.20;;;2.00;;
7334;SDS011;3708;42.632;23.378;2023-02-04T07:17:56;3.60;;;2.00;;
7334;SDS011;3708;42.632;23.378;2023-02-04T07:20:23;2.30;;;1.90;;
7334;SDS011;3708;42.632;23.378;2023-02-04T07:22:50;2.90;;;2.30;;
7334;SDS011;3708;42.632;23.378;2023-02-04T07:25:17;2.60;;;2.10;;
7334;SDS011;3708;42.632;23.378;2023-02-04T07:27:43;6.90;;;2.00;;
7334;SDS011;3708;42.632;23.378;2023-02-04T07:30:12;1.90;;;1.70;;
7334;SDS011;3708;42.632;23.378;2023-02-04T07:32:41;5.90;;;3.10;;
7334;SDS011;3708;42.632;23.378;2023-02-04T07:35:08;3.37;;;2.03;;
7334;SDS011;3708;42.632;23.378;2023-02-04T07:37:35;2.07;;;1.77;;
7334;SDS011;3708;42.632;23.378;2023-02-04T07:40:02;1.90;;;1.60;;
7334;SDS011;3708;42.632;23.378;2023-02-04T07:42:30;4.07;;;2.03;;
7334;SDS011;3708;42.632;23.378;2023-02-04T07:44:56;2.57;;;2.03;;
7334;SDS011;3708;42.632;23.378;2023-02-04T07:47:23;3.87;;;1.70;;
7334;SDS011;3708;42.632;23.378;2023-02-04T07:49:51;3.33;;;2.30;;
7334;SDS011;3708;42.632;23.378;2023-02-04T07:52:21;3.87;;;1.90;;
7334;SDS011;3708;42.632;23.378;2023-02-04T07:54:48;2.70;;;1.83;;
7334;SDS011;3708;42.632;23.378;2023-02-04T07:57:16;4.17;;;1.90;;
7334;SDS011;3708;42.632;23.378;2023-02-04T07:59:43;4.37;;;1.80;;
7334;SDS011;3708;42.632;23.378;2023-02-04T08:02:10;3.00;;;2.03;;
7334;SDS011;3708;42.632;23.378;2023-02-04T08:04:37;2.27;;;1.80;;
7334;SDS011;3708;42.632;23.378;2023-02-04T08:07:06;1.97;;;1.77;;
7334;SDS011;3708;42.632;23.378;2023-02-04T08:09:32;2.40;;;2.00;;
7334;SDS011;3708;42.632;23.378;2023-02-04T08:11:59;2.60;;;1.67;;
7334;SDS011;3708;42.632;23.378;2023-02-04T08:14:26;3.73;;;2.07;;
7334;SDS011;3708;42.632;23.378;2023-02-04T08:16:53;1.77;;;1.67;;
7334;SDS011;3708;42.632;23.378;2023-02-04T08:19:20;11.30;;;2.20;;
7334;SDS011;3708;42.632;23.378;2023-02-04T08:21:47;5.63;;;2.37;;
7334;SDS011;3708;42.632;23.378;2023-02-04T08:24:15;4.37;;;1.80;;
7334;SDS011;3708;42.632;23.378;2023-02-04T08:26:43;3.17;;;1.93;;
7334;SDS011;3708;42.632;23.378;2023-02-04T08:29:10;3.30;;;1.87;;
7334;SDS011;3708;42.632;23.378;2023-02-04T08:31:37;2.83;;;1.97;;
7334;SDS011;3708;42.632;23.378;2023-02-04T08:34:04;2.23;;;1.70;;
7334;SDS011;3708;42.632;23.378;2023-02-04T08:36:31;4.30;;;1.73;;
7334;SDS011;3708;42.632;23.378;2023-02-04T08:38:58;2.00;;;1.80;;
7334;SDS011;3708;42.632;23.378;2023-02-04T08:41:26;2.07;;;1.63;;
7334;SDS011;3708;42.632;23.378;2023-02-04T08:43:53;3.13;;;1.90;;
7334;SDS011;3708;42.632;23.378;2023-02-04T08:46:20;3.73;;;1.90;;
7334;SDS011;3708;42.632;23.378;2023-02-04T08:48:47;1.80;;;1.70;;
7334;SDS011;3708;42.632;23.378;2023-02-04T08:51:14;2.67;;;1.60;;
7334;SDS011;3708;42.632;23.378;2023-02-04T08:53:41;2.00;;;1.67;;
7334;SDS011;3708;42.632;23.378;2023-02-04T08:56:08;2.07;;;1.87;;
7334;SDS011;3708;42.632;23.378;2023-02-04T08:58:41;5.10;;;1.90;;
7334;SDS011;3708;42.632;23.378;2023-02-04T09:01:08;2.90;;;1.97;;
7334;SDS011;3708;42.632;23.378;2023-02-04T09:03:36;2.20;;;1.60;;
7334;SDS011;3708;42.632;23.378;2023-02-04T09:06:03;2.10;;;1.43;;
7334;SDS011;3708;42.632;23.378;2023-02-04T09:08:31;4.00;;;1.67;;
7334;SDS011;3708;42.632;23.378;2023-02-04T09:10:58;3.00;;;1.33;;
7334;SDS011;3708;42.632;23.378;2023-02-04T09:13:25;3.63;;;2.07;;
7334;SDS011;3708;42.632;23.378;2023-02-04T09:15:54;3.00;;;1.70;;
7334;SDS011;3708;42.632;23.378;2023-02-04T09:18:21;1.70;;;1.60;;
7334;SDS011;3708;42.632;23.378;2023-02-04T09:20:50;4.30;;;1.77;;
7334;SDS011;3708;42.632;23.378;2023-02-04T09:23:17;1.70;;;1.60;;
7334;SDS011;3708;42.632;23.378;2023-02-04T09:25:44;1.70;;;1.50;;
7334;SDS011;3708;42.632;23.378;2023-02-04T09:28:12;1.60;;;1.50;;
7334;SDS011;3708;42.632;23.378;2023-02-04T09:30:41;2.30;;;1.70;;
7334;SDS011;3708;42.632;23.378;2023-02-04T09:33:12;1.87;;;1.50;;
7334;SDS011;3708;42.632;23.378;2023-02-04T09:35:40;1.50;;;1.40;;
7334;SDS011;3708;42.632;23.378;2023-02-04T09:38:07;4.77;;;1.50;;
7334;SDS011;3708;42.632;23.378;2023-02-04T09:40:35;3.20;;;1.73;;
7334;SDS011;3708;42.632;23.378;2023-02-04T09:43:06;3.17;;;1.43;;
7334;SDS011;3708;42.632;23.378;2023-02-04T09:45:36;1.77;;;1.60;;
7334;SDS011;3708;42.632;23.378;2023-02-04T09:48:03;2.50;;;1.60;;
7334;SDS011;3708;42.632;23.378;2023-02-04T09:50:33;1.90;;;1.40;;
7334;SDS011;3708;42.632;23.378;2023-02-04T09:53:00;2.60;;;1.70;;
7334;SDS011;3708;42.632;23.378;2023-02-04T09:55:30;1.60;;;1.50;;
7334;SDS011;3708;42.632;23.378;2023-02-04T09:57:59;3.90;;;1.60;;
7334;SDS011;3708;42.632;23.378;2023-02-04T10:00:26;2.43;;;1.60;;
7334;SDS011;3708;42.632;23.378;2023-02-04T10:02:55;1.97;;;1.50;;
7334;SDS011;3708;42.632;23.378;2023-02-04T10:05:26;2.10;;;1.80;;
7334;SDS011;3708;42.632;23.378;2023-02-04T10:07:56;2.23;;;1.43;;
7334;SDS011;3708;42.632;23.378;2023-02-04T10:10:23;2.13;;;1.60;;
7334;SDS011;3708;42.632;23.378;2023-02-04T10:12:53;1.40;;;1.30;;
7334;SDS011;3708;42.632;23.378;2023-02-04T10:15:22;2.30;;;1.40;;
7334;SDS011;3708;42.632;23.378;2023-02-04T10:17:50;1.60;;;1.50;;
7334;SDS011;3708;42.632;23.378;2023-02-04T10:20:19;1.50;;;1.40;;
7334;SDS011;3708;42.632;23.378;2023-02-04T10:22:47;3.00;;;1.40;;
7334;SDS011;3708;42.632;23.378;2023-02-04T10:25:18;1.23;;;1.13;;
7334;SDS011;3708;42.632;23.378;2023-02-04T10:27:46;1.57;;;1.47;;
7334;SDS011;3708;42.632;23.378;2023-02-04T10:30:19;2.03;;;1.50;;
7334;SDS011;3708;42.632;23.378;2023-02-04T10:32:47;2.00;;;1.63;;
7334;SDS011;3708;42.632;23.378;2023-02-04T10:35:14;1.50;;;1.40;;
7334;SDS011;3708;42.632;23.378;2023-02-04T10:37:42;1.57;;;1.47;;
7334;SDS011;3708;42.632;23.378;2023-02-04T10:42:54;1.73;;;1.20;;
7334;SDS011;3708;42.632;23.378;2023-02-04T10:45:21;1.30;;;1.20;;
7334;SDS011;3708;42.632;23.378;2023-02-04T10:47:49;1.40;;;1.30;;
7334;SDS011;3708;42.632;23.378;2023-02-04T10:50:18;1.47;;;1.37;;
7334;SDS011;3708;42.632;23.378;2023-02-04T10:52:47;1.30;;;1.20;;
7334;SDS011;3708;42.632;23.378;2023-02-04T10:55:17;1.43;;;1.30;;
7334;SDS011;3708;42.632;23.378;2023-02-04T10:57:46;1.77;;;1.53;;
7334;SDS011;3708;42.632;23.378;2023-02-04T11:00:16;1.40;;;1.30;;
7334;SDS011;3708;42.632;23.378;2023-02-04T11:02:44;2.10;;;1.50;;
7334;SDS011;3708;42.632;23.378;2023-02-04T11:05:16;1.30;;;1.20;;
7334;SDS011;3708;42.632;23.378;2023-02-04T11:07:45;4.17;;;1.70;;
7334;SDS011;3708;42.632;23.378;2023-02-04T11:10:14;1.83;;;1.70;;
7334;SDS011;3708;42.632;23.378;2023-02-04T11:12:43;3.00;;;1.80;;
7334;SDS011;3708;42.632;23.378;2023-02-04T11:18:12;1.93;;;1.60;;
7334;SDS011;3708;42.632;23.378;2023-02-04T11:20:52;1.60;;;1.50;;
7334;SDS011;3708;42.632;23.378;2023-02-04T11:23:34;1.50;;;1.40;;
7334;SDS011;3708;42.632;23.378;2023-02-04T11:26:03;2.47;;;1.53;;
7334;SDS011;3708;42.632;23.378;2023-02-04T11:31:57;1.80;;;1.50;;
7334;SDS011;3708;42.632;23.378;2023-02-04T11:34:28;1.40;;;1.30;;
7334;SDS011;3708;42.632;23.378;2023-02-04T11:37:05;1.37;;;1.27;;
7334;SDS011;3708;42.632;23.378;2023-02-04T11:39:41;1.80;;;1.50;;
7334;SDS011;3708;42.632;23.378;2023-02-04T11:42:14;1.83;;;1.30;;
7334;SDS011;3708;42.632;23.378;2023-02-04T11:44:47;1.60;;;1.50;;
7334;SDS011;3708;42.632;23.378;2023-02-04T11:47:16;2.20;;;1.67;;
7334;SDS011;3708;42.632;23.378;2023-02-04T11:49:43;1.80;;;1.50;;
7334;SDS011;3708;42.632;23.378;2023-02-04T11:52:18;2.10;;;1.50;;
7334;SDS011;3708;42.632;23.378;2023-02-04T11:54:51;1.83;;;1.53;;
7334;SDS011;3708;42.632;23.378;2023-02-04T11:57:18;1.57;;;1.47;;
7334;SDS011;3708;42.632;23.378;2023-02-04T11:59:45;2.87;;;1.87;;
7334;SDS011;3708;42.632;23.378;2023-02-04T12:02:14;1.93;;;1.67;;
7334;SDS011;3708;42.632;23.378;2023-02-04T12:04:50;1.80;;;1.50;;
7334;SDS011;3708;42.632;23.378;2023-02-04T12:07:25;2.07;;;1.50;;
7334;SDS011;3708;42.632;23.378;2023-02-04T12:09:53;1.97;;;1.87;;
7334;SDS011;3708;42.632;23.378;2023-02-04T12:12:23;2.13;;;1.80;;
7334;SDS011;3708;42.632;23.378;2023-02-04T12:14:56;2.13;;;1.77;;
7334;SDS011;3708;42.632;23.378;2023-02-04T12:17:27;2.30;;;2.10;;
7334;SDS011;3708;42.632;23.378;2023-02-04T12:19:54;1.97;;;1.77;;
7334;SDS011;3708;42.632;23.378;2023-02-04T12:22:21;3.73;;;2.17;;
7334;SDS011;3708;42.632;23.378;2023-02-04T12:24:48;2.27;;;2.07;;
7334;SDS011;3708;42.632;23.378;2023-02-04T12:27:16;1.73;;;1.60;;
7334;SDS011;3708;42.632;23.378;2023-02-04T12:29:43;2.10;;;1.90;;
7334;SDS011;3708;42.632;23.378;2023-02-04T12:32:10;3.87;;;2.40;;
7334;SDS011;3708;42.632;23.378;2023-02-04T12:34:38;2.50;;;1.83;;
7334;SDS011;3708;42.632;23.378;2023-02-04T12:37:05;2.37;;;2.07;;
7334;SDS011;3708;42.632;23.378;2023-02-04T12:39:32;3.43;;;1.90;;
7334;SDS011;3708;42.632;23.378;2023-02-04T12:41:58;3.37;;;1.77;;
7334;SDS011;3708;42.632;23.378;2023-02-04T12:44:25;4.17;;;2.13;;
7334;SDS011;3708;42.632;23.378;2023-02-04T12:46:52;1.83;;;1.67;;
7334;SDS011;3708;42.632;23.378;2023-02-04T12:49:19;4.10;;;2.27;;
7334;SDS011;3708;42.632;23.378;2023-02-04T12:51:49;2.63;;;1.90;;
7334;SDS011;3708;42.632;23.378;2023-02-04T12:54:17;2.00;;;1.80;;
7334;SDS011;3708;42.632;23.378;2023-02-04T12:56:43;2.20;;;2.00;;
7334;SDS011;3708;42.632;23.378;2023-02-04T12:59:10;2.57;;;1.97;;
7334;SDS011;3708;42.632;23.378;2023-02-04T13:01:37;1.97;;;1.77;;
7334;SDS011;3708;42.632;23.378;2023-02-04T13:04:04;1.50;;;1.40;;
7334;SDS011;3708;42.632;23.378;2023-02-04T13:06:31;2.27;;;2.03;;
7334;SDS011;3708;42.632;23.378;2023-02-04T13:08:59;1.80;;;1.70;;
7334;SDS011;3708;42.632;23.378;2023-02-04T13:11:26;1.87;;;1.63;;
7334;SDS011;3708;42.632;23.378;2023-02-04T13:13:52;1.80;;;1.70;;
7334;SDS011;3708;42.632;23.378;2023-02-04T13:16:19;1.60;;;1.50;;
7334;SDS011;3708;42.632;23.378;2023-02-04T13:18:48;1.10;;;1.10;;
7334;SDS011;3708;42.632;23.378;2023-02-04T13:21:15;2.37;;;1.30;;
7334;SDS011;3708;42.632;23.378;2023-02-04T13:23:42;1.50;;;1.40;;
7334;SDS011;3708;42.632;23.378;2023-02-04T13:26:11;1.40;;;1.30;;
7334;SDS011;3708;42.632;23.378;2023-02-04T13:28:37;2.03;;;1.30;;
7334;SDS011;3708;42.632;23.378;2023-02-04T13:31:04;1.40;;;1.30;;
7334;SDS011;3708;42.632;23.378;2023-02-04T13:33:31;1.40;;;1.30;;
7334;SDS011;3708;42.632;23.378;2023-02-04T13:35:58;2.50;;;1.50;;
7334;SDS011;3708;42.632;23.378;2023-02-04T13:38:25;1.40;;;1.30;;
7334;SDS011;3708;42.632;23.378;2023-02-04T13:40:51;1.40;;;1.30;;
7334;SDS011;3708;42.632;23.378;2023-02-04T13:43:20;1.60;;;1.50;;
7334;SDS011;3708;42.632;23.378;2023-02-04T13:45:47;1.87;;;1.50;;
7334;SDS011;3708;42.632;23.378;2023-02-04T13:48:15;1.60;;;1.50;;
7334;SDS011;3708;42.632;23.378;2023-02-04T13:50:42;1.63;;;1.53;;
7334;SDS011;3708;42.632;23.378;2023-02-04T13:53:09;1.80;;;1.70;;
7334;SDS011;3708;42.632;23.378;2023-02-04T13:55:36;1.40;;;1.30;;
7334;SDS011;3708;42.632;23.378;2023-02-04T13:58:03;1.63;;;1.40;;
7334;SDS011;3708;42.632;23.378;2023-02-04T14:00:31;1.50;;;1.40;;
7334;SDS011;3708;42.632;23.378;2023-02-04T14:02:59;2.10;;;1.67;;
7334;SDS011;3708;42.632;23.378;2023-02-04T14:05:26;2.60;;;1.70;;
7334;SDS011;3708;42.632;23.378;2023-02-04T14:07:52;1.83;;;1.50;;
7334;SDS011;3708;42.632;23.378;2023-02-04T14:10:19;1.83;;;1.73;;
7334;SDS011;3708;42.632;23.378;2023-02-04T14:12:49;4.03;;;1.90;;
7334;SDS011;3708;42.632;23.378;2023-02-04T14:15:16;2.30;;;1.93;;
7334;SDS011;3708;42.632;23.378;2023-02-04T14:17:44;2.07;;;1.80;;
7334;SDS011;3708;42.632;23.378;2023-02-04T14:20:11;3.87;;;1.93;;
7334;SDS011;3708;42.632;23.378;2023-02-04T14:22:38;2.20;;;2.00;;
7334;SDS011;3708;42.632;23.378;2023-02-04T14:25:05;2.17;;;1.97;;
7334;SDS011;3708;42.632;23.378;2023-02-04T14:27:34;1.97;;;1.77;;
7334;SDS011;3708;42.632;23.378;2023-02-04T14:30:04;2.57;;;1.90;;
7334;SDS011;3708;42.632;23.378;2023-02-04T14:32:32;2.20;;;2.00;;
7334;SDS011;3708;42.632;23.378;2023-02-04T14:35:00;1.93;;;1.80;;
7334;SDS011;3708;42.632;23.378;2023-02-04T14:37:27;1.67;;;1.57;;
7334;SDS011;3708;42.632;23.378;2023-02-04T14:39:54;1.80;;;1.70;;
7334;SDS011;3708;42.632;23.378;2023-02-04T14:42:20;2.30;;;2.03;;
7334;SDS011;3708;42.632;23.378;2023-02-04T14:44:48;1.97;;;1.77;;
7334;SDS011;3708;42.632;23.378;2023-02-04T14:47:15;3.27;;;2.00;;
7334;SDS011;3708;42.632;23.378;2023-02-04T14:49:41;3.07;;;2.00;;
7334;SDS011;3708;42.632;23.378;2023-02-04T14:52:10;2.27;;;2.07;;
7334;SDS011;3708;42.632;23.378;2023-02-04T14:54:37;2.97;;;1.77;;
7334;SDS011;3708;42.632;23.378;2023-02-04T14:57:04;5.07;;;2.10;;
7334;SDS011;3708;42.632;23.378;2023-02-04T14:59:35;2.70;;;1.80;;
7334;SDS011;3708;42.632;23.378;2023-02-04T15:02:02;2.40;;;2.20;;
7334;SDS011;3708;42.632;23.378;2023-02-04T15:04:29;2.90;;;2.33;;
7334;SDS011;3708;42.632;23.378;2023-02-04T15:06:56;2.00;;;1.80;;
7334;SDS011;3708;42.632;23.378;2023-02-04T15:09:24;3.03;;;2.23;;